Time;durP1;ratioP1;P1;durP2;ratioP2;P2;SDS_P1;SDS_P2;PMS_P1;PMS_P2;Temp;Humidity;BMP_temperature;BMP_pressure;BME280_temperature;BME280_humidity;BME280_pressure;Samples;Min_cycle;Max_cycle;Signal;HPM_P1;HPM_P2
2022/01/11 00:01:28;;;;;;;311.45;60.95;;;0.00;99.90;;;;;;5039719;28;20055;-68
2022/01/11 00:03:54;;;;;;;206.38;55.05;;;0.00;99.90;;;;;;5040656;28;20041;-70
2022/01/11 00:06:39;;;;;;;257.92;57.47;;;0.00;99.90;;;;;;5057880;28;20057;-69
2022/01/11 00:09:18;;;;;;;406.20;62.47;;;0.00;99.90;;;;;;5057429;28;20060;-70
2022/01/11 00:11:45;;;;;;;328.70;54.92;;;0.00;99.90;;;;;;5039752;28;20044;-69
2022/01/11 00:14:11;;;;;;;360.08;60.97;;;0.00;99.90;;;;;;5040534;28;20119;-69
2022/01/11 00:16:36;;;;;;;363.15;61.67;;;-0.10;99.90;;;;;;5039512;28;20162;-69
2022/01/11 00:19:06;;;;;;;212.55;48.97;;;-0.10;99.90;;;;;;5057292;28;20424;-69
2022/01/11 00:21:33;;;;;;;378.88;61.55;;;-0.10;99.90;;;;;;5057350;28;20060;-70
2022/01/11 00:26:42;;;;;;;304.45;59.05;;;0.10;99.90;;;;;;5057114;28;20488;-68
2022/01/11 00:29:08;;;;;;;266.95;54.80;;;-0.20;99.90;;;;;;5057290;28;20116;-68
2022/01/11 00:31:33;;;;;;;212.30;51.03;;;-0.20;99.90;;;;;;5039620;28;20084;-68
2022/01/11 00:34:01;;;;;;;199.45;46.42;;;-0.20;99.90;;;;;;5057136;28;20045;-69
2022/01/11 00:36:40;;;;;;;176.32;45.33;;;-0.30;99.90;;;;;;5039367;28;20056;-69
2022/01/11 00:39:05;;;;;;;203.55;49.85;;;-0.30;99.90;;;;;;5056772;28;20353;-69
2022/01/11 00:41:31;;;;;;;218.70;49.80;;;-0.30;99.90;;;;;;5039671;28;20060;-69
2022/01/11 00:43:57;;;;;;;154.80;45.92;;;-0.30;99.90;;;;;;5056712;28;20358;-67
2022/01/11 00:46:22;;;;;;;203.95;48.72;;;-0.30;99.90;;;;;;5056861;28;20044;-67
2022/01/11 00:48:48;;;;;;;139.90;44.30;;;-0.40;99.90;;;;;;5056974;28;20091;-68
2022/01/11 00:51:13;;;;;;;130.65;42.38;;;-0.40;99.90;;;;;;5056462;28;20044;-69
2022/01/11 00:53:41;;;;;;;158.40;44.20;;;-0.40;99.90;;;;;;5052943;28;20064;-68
2022/01/11 00:56:06;;;;;;;126.75;43.13;;;-0.50;99.90;;;;;;5038830;28;20123;-68
2022/01/11 00:58:32;;;;;;;128.82;42.83;;;-0.50;99.90;;;;;;5056624;28;20128;-68
2022/01/11 01:00:57;;;;;;;135.88;45.28;;;-0.50;99.90;;;;;;5039262;28;20453;-69
2022/01/11 01:03:24;;;;;;;107.53;41.78;;;-0.50;99.90;;;;;;5022612;28;20045;-70
2022/01/11 01:05:49;;;;;;;110.13;42.15;;;-0.50;99.90;;;;;;5056277;28;20137;-69
2022/01/11 01:08:15;;;;;;;128.80;44.58;;;-0.50;99.90;;;;;;5038761;28;20153;-69
2022/01/11 01:10:46;;;;;;;125.30;44.80;;;-0.40;99.90;;;;;;5055941;28;20442;-69
2022/01/11 01:13:17;;;;;;;129.95;45.30;;;-0.50;99.90;;;;;;5056311;28;20128;-68
2022/01/11 01:15:47;;;;;;;143.52;47.92;;;-0.40;99.90;;;;;;5056250;28;20045;-67
2022/01/11 01:18:17;;;;;;;103.05;42.63;;;-0.40;99.90;;;;;;5055614;28;20052;-70
2022/01/11 01:20:44;;;;;;;159.40;48.03;;;-0.40;99.90;;;;;;5038681;28;20474;-69
2022/01/11 01:23:10;;;;;;;224.30;51.33;;;-0.40;99.90;;;;;;5036219;28;20052;-70
2022/01/11 01:25:36;;;;;;;175.40;48.60;;;-0.40;99.90;;;;;;5036319;28;20049;-68
2022/01/11 01:28:02;;;;;;;179.65;48.45;;;-0.40;99.90;;;;;;5035973;28;20199;-69
2022/01/11 01:30:28;;;;;;;243.25;54.40;;;-0.40;99.90;;;;;;5035552;28;20124;-69
2022/01/11 01:32:54;;;;;;;209.90;49.03;;;-0.40;99.90;;;;;;5035879;28;20152;-69
2022/01/11 01:35:23;;;;;;;190.65;48.72;;;-0.40;99.90;;;;;;5018370;28;20457;-68
2022/01/11 01:37:49;;;;;;;195.68;48.83;;;-0.10;99.90;;;;;;5035803;28;20089;-69
2022/01/11 01:40:17;;;;;;;225.43;50.45;;;-0.30;99.90;;;;;;5035910;28;20412;-69
2022/01/11 01:42:44;;;;;;;204.02;47.92;;;-0.30;99.90;;;;;;5035685;28;20041;-69
2022/01/11 01:45:12;;;;;;;206.07;49.08;;;-0.30;99.90;;;;;;5035757;28;20076;-70
2022/01/11 01:47:37;;;;;;;399.48;57.83;;;-0.30;99.90;;;;;;5035649;28;20671;-68
2022/01/11 01:50:05;;;;;;;311.42;56.95;;;-0.30;99.90;;;;;;5018508;28;20140;-68
2022/01/11 01:52:31;;;;;;;295.00;61.13;;;-0.30;99.90;;;;;;5035782;28;20091;-67
2022/01/11 01:54:57;;;;;;;243.93;52.53;;;-0.30;99.90;;;;;;5052296;28;20453;-68
2022/01/11 01:57:24;;;;;;;298.60;55.78;;;-0.30;99.90;;;;;;5055360;28;20441;-68
2022/01/11 01:59:50;;;;;;;259.85;50.00;;;-0.20;99.90;;;;;;5038016;28;20041;-71
2022/01/11 02:02:16;;;;;;;322.58;55.78;;;-0.30;99.90;;;;;;5037831;28;20059;-70
2022/01/11 02:04:41;;;;;;;404.80;63.75;;;-0.30;99.90;;;;;;5037470;28;20040;-69
2022/01/11 02:07:07;;;;;;;294.20;53.60;;;-0.30;99.90;;;;;;5038401;28;20412;-68
2022/01/11 02:09:33;;;;;;;430.15;64.20;;;-0.20;99.90;;;;;;5055209;28;20139;-68
2022/01/11 02:11:59;;;;;;;382.08;58.97;;;-0.20;99.90;;;;;;5037362;28;20127;-71
2022/01/11 02:14:26;;;;;;;246.98;51.22;;;-0.30;99.90;;;;;;5055250;28;20131;-69
2022/01/11 02:16:52;;;;;;;360.08;56.97;;;-0.30;99.90;;;;;;5054903;28;20044;-69
2022/01/11 02:19:18;;;;;;;464.77;63.38;;;-0.30;99.90;;;;;;5055184;28;20134;-69
2022/01/11 02:21:43;;;;;;;395.40;58.78;;;-0.30;99.90;;;;;;5054908;28;20452;-69
2022/01/11 02:24:09;;;;;;;332.00;52.33;;;-0.30;99.90;;;;;;5045535;28;20343;-69
2022/01/11 02:26:35;;;;;;;375.27;60.10;;;-0.20;99.90;;;;;;5045161;28;20123;-70
2022/01/11 02:29:00;;;;;;;339.85;53.80;;;-0.20;99.90;;;;;;5035304;28;20044;-68
2022/01/11 02:31:26;;;;;;;440.52;61.70;;;-0.20;99.90;;;;;;5035646;28;20151;-69
2022/01/11 02:33:57;;;;;;;340.30;54.22;;;-0.20;99.90;;;;;;5017434;28;20504;-70
2022/01/11 02:36:26;;;;;;;299.65;53.90;;;-0.20;99.90;;;;;;5035157;28;20055;-67
2022/01/11 02:38:54;;;;;;;321.08;51.92;;;-0.30;99.90;;;;;;5034796;28;20492;-69
2022/01/11 02:41:21;;;;;;;426.05;60.35;;;-0.20;99.90;;;;;;5016783;28;20053;-68
2022/01/11 02:43:48;;;;;;;264.83;50.42;;;-0.20;99.90;;;;;;5034702;28;20132;-68
2022/01/11 02:46:19;;;;;;;288.88;52.60;;;-0.20;99.90;;;;;;5017821;28;20458;-70
2022/01/11 02:48:49;;;;;;;258.55;50.25;;;-0.30;99.90;;;;;;5017084;28;20041;-70
2022/01/11 02:51:17;;;;;;;371.80;57.38;;;-0.20;99.90;;;;;;5034840;28;20049;-68
2022/01/11 02:53:45;;;;;;;440.45;65.20;;;-0.20;99.90;;;;;;5017625;28;20461;-69
2022/01/11 02:56:12;;;;;;;335.45;54.67;;;-0.20;99.90;;;;;;5034635;28;20038;-69
2022/01/11 02:58:38;;;;;;;377.58;55.83;;;-0.20;99.90;;;;;;5017513;28;20132;-69
2022/01/11 03:01:04;;;;;;;331.65;56.75;;;-0.20;99.90;;;;;;5034544;28;20433;-69
2022/01/11 03:03:30;;;;;;;275.58;53.28;;;-0.20;99.90;;;;;;5034812;28;20096;-69
2022/01/11 03:05:58;;;;;;;312.30;56.45;;;-0.10;99.90;;;;;;5034257;28;20084;-69
2022/01/11 03:08:26;;;;;;;273.80;54.13;;;-0.20;99.90;;;;;;5017171;28;20462;-69
2022/01/11 03:10:52;;;;;;;250.45;53.92;;;-0.20;99.90;;;;;;5034515;28;20058;-69
2022/01/11 03:13:19;;;;;;;239.20;53.80;;;-0.10;99.90;;;;;;5034870;28;20187;-70
2022/01/11 03:15:46;;;;;;;233.55;52.22;;;-0.10;99.90;;;;;;5001641;28;20077;-69
2022/01/11 03:18:12;;;;;;;248.48;54.25;;;-0.10;99.90;;;;;;5034528;28;20449;-70
2022/01/11 03:20:40;;;;;;;259.90;53.88;;;-0.10;99.90;;;;;;5034479;28;20050;-70
2022/01/11 03:23:07;;;;;;;304.25;60.67;;;-0.10;99.90;;;;;;5016842;28;20058;-69
2022/01/11 03:25:33;;;;;;;253.40;54.47;;;-0.10;99.90;;;;;;5016796;28;20049;-69
2022/01/11 03:28:00;;;;;;;261.23;55.33;;;-0.10;99.90;;;;;;5034347;28;20041;-69
2022/01/11 03:30:25;;;;;;;230.25;53.88;;;-0.10;99.90;;;;;;5034505;28;20111;-71
2022/01/11 03:32:51;;;;;;;288.33;56.80;;;0.00;99.90;;;;;;5034547;28;20434;-69
2022/01/11 03:35:17;;;;;;;341.73;62.40;;;0.00;99.90;;;;;;5017406;28;20061;-68
2022/01/11 03:37:44;;;;;;;212.80;52.67;;;0.00;99.90;;;;;;5034562;28;20095;-71
2022/01/11 03:40:20;;;;;;;248.15;54.22;;;0.00;99.90;;;;;;5034285;28;20432;-67
2022/01/11 03:42:46;;;;;;;285.48;56.13;;;0.00;99.90;;;;;;5017004;28;20042;-69
2022/01/11 03:45:14;;;;;;;309.17;58.15;;;0.00;99.90;;;;;;5017425;28;20370;-69
2022/01/11 03:47:40;;;;;;;296.50;56.28;;;0.00;99.90;;;;;;5034454;28;20081;-71
2022/01/11 03:50:09;;;;;;;255.75;54.38;;;0.10;99.90;;;;;;5048951;28;20388;-69
2022/01/11 03:52:35;;;;;;;207.63;50.40;;;0.10;99.90;;;;;;5054998;28;20457;-70
2022/01/11 03:55:05;;;;;;;246.55;53.92;;;0.10;99.90;;;;;;5059925;28;20041;-67
2022/01/11 03:57:32;;;;;;;293.15;59.92;;;0.10;99.90;;;;;;5039877;28;20559;-68
2022/01/11 04:00:07;;;;;;;280.95;56.53;;;0.30;99.90;;;;;;5034635;28;20116;-68
2022/01/11 04:02:33;;;;;;;440.42;63.15;;;0.10;99.90;;;;;;5020148;28;20053;-69
2022/01/11 04:04:58;;;;;;;256.67;54.70;;;0.10;99.90;;;;;;5020115;28;20045;-69
2022/01/11 04:07:26;;;;;;;256.98;53.70;;;0.10;99.90;;;;;;5037765;28;20041;-68
2022/01/11 04:09:53;;;;;;;271.92;53.97;;;0.10;99.90;;;;;;5037317;28;20355;-69
2022/01/11 04:12:19;;;;;;;227.95;52.83;;;0.10;99.90;;;;;;5037312;28;20041;-69
2022/01/11 04:14:45;;;;;;;290.15;53.67;;;0.00;99.90;;;;;;5037786;28;20045;-68
2022/01/11 04:17:11;;;;;;;220.15;49.55;;;0.00;99.90;;;;;;5037382;28;20056;-69
2022/01/11 04:19:37;;;;;;;194.88;48.35;;;0.00;99.90;;;;;;5037407;28;20468;-69
2022/01/11 04:22:03;;;;;;;181.18;48.88;;;0.00;99.90;;;;;;5003176;28;20174;-70
2022/01/11 04:24:29;;;;;;;214.85;49.30;;;0.00;99.90;;;;;;5021026;28;20038;-69
2022/01/11 04:26:55;;;;;;;170.80;45.60;;;0.00;99.90;;;;;;5019630;28;20104;-69
2022/01/11 04:29:21;;;;;;;171.52;46.20;;;-0.10;99.90;;;;;;5037310;28;20123;-70
2022/01/11 04:31:46;;;;;;;173.70;47.45;;;-0.10;99.90;;;;;;5019582;28;20442;-69
2022/01/11 04:34:12;;;;;;;159.00;45.42;;;-0.10;99.90;;;;;;5019691;28;20057;-68
2022/01/11 04:36:38;;;;;;;148.32;43.85;;;-0.20;99.90;;;;;;5037018;28;20386;-70
2022/01/11 04:39:06;;;;;;;170.93;46.65;;;-0.20;99.90;;;;;;5036980;28;20049;-69
2022/01/11 04:41:32;;;;;;;131.20;42.33;;;-0.20;99.90;;;;;;5019669;28;20072;-70
2022/01/11 04:43:57;;;;;;;151.70;44.60;;;-0.20;99.90;;;;;;5019202;28;20037;-70
2022/01/11 04:46:23;;;;;;;142.57;42.38;;;-0.10;99.90;;;;;;5036800;28;20476;-70
2022/01/11 04:48:49;;;;;;;134.82;39.92;;;-0.10;99.90;;;;;;5036976;28;20042;-71
2022/01/11 04:51:15;;;;;;;123.50;40.40;;;0.00;99.90;;;;;;5018978;28;20458;-70
2022/01/11 04:53:41;;;;;;;145.80;44.28;;;0.00;99.90;;;;;;5044196;28;20048;-69
2022/01/11 04:56:07;;;;;;;155.85;43.75;;;-0.10;99.90;;;;;;5022941;28;20056;-69
2022/01/11 04:58:33;;;;;;;136.05;45.10;;;-0.20;99.90;;;;;;5039329;28;20436;-69
2022/01/11 05:00:59;;;;;;;128.48;43.72;;;-0.10;99.90;;;;;;5056672;28;20116;-72
2022/01/11 05:03:25;;;;;;;143.35;42.88;;;-0.20;99.90;;;;;;5055642;28;20487;-70
2022/01/11 05:05:51;;;;;;;134.52;43.97;;;-0.20;99.90;;;;;;5038674;28;20056;-70
2022/01/11 05:08:16;;;;;;;149.88;45.00;;;0.20;99.90;;;;;;5038662;28;20040;-69
2022/01/11 05:10:42;;;;;;;127.75;43.75;;;-0.20;99.90;;;;;;5055912;28;20060;-69
2022/01/11 05:13:16;;;;;;;141.52;43.70;;;-0.20;99.90;;;;;;5037629;28;20053;-70
2022/01/11 05:15:42;;;;;;;157.38;47.25;;;-0.20;99.90;;;;;;5055928;28;20067;-70
2022/01/11 05:18:09;;;;;;;137.43;43.65;;;-0.20;99.90;;;;;;5044190;28;20055;-69
2022/01/11 05:20:36;;;;;;;152.80;46.10;;;-0.20;99.90;;;;;;5051421;28;20098;-69
2022/01/11 05:23:03;;;;;;;144.63;46.20;;;-0.10;99.90;;;;;;5019106;28;20064;-69
2022/01/11 05:25:29;;;;;;;136.05;44.78;;;-0.10;99.90;;;;;;5018628;28;20045;-69
2022/01/11 05:27:54;;;;;;;140.10;46.00;;;-0.10;99.90;;;;;;5028294;28;20330;-70
2022/01/11 05:30:21;;;;;;;162.27;47.60;;;-0.10;99.90;;;;;;5036056;28;20132;-70
2022/01/11 05:32:48;;;;;;;139.18;44.63;;;0.10;99.90;;;;;;5035680;28;20053;-69
2022/01/11 05:35:15;;;;;;;156.80;46.08;;;-0.10;99.90;;;;;;5018440;28;20137;-70
2022/01/11 05:37:42;;;;;;;131.52;42.55;;;-0.10;99.90;;;;;;5018472;28;20057;-71
2022/01/11 05:40:09;;;;;;;133.00;44.25;;;0.00;99.90;;;;;;5018659;28;20053;-69
2022/01/11 05:42:36;;;;;;;129.43;43.03;;;-0.10;99.90;;;;;;5036038;28;20088;-70
2022/01/11 05:45:03;;;;;;;135.23;44.60;;;-0.10;99.90;;;;;;5018370;28;20454;-69
2022/01/11 05:47:29;;;;;;;134.00;43.20;;;-0.10;99.90;;;;;;5018487;28;20077;-71
2022/01/11 05:49:54;;;;;;;133.80;46.17;;;-0.10;99.90;;;;;;5018095;28;20069;-70
2022/01/11 05:52:20;;;;;;;154.55;46.72;;;-0.10;99.90;;;;;;5017845;28;20053;-70
2022/01/11 05:54:46;;;;;;;170.63;46.72;;;-0.10;99.90;;;;;;5035595;28;20144;-69
2022/01/11 05:57:11;;;;;;;157.68;46.83;;;0.00;99.90;;;;;;5035653;28;20050;-68
2022/01/11 05:59:37;;;;;;;148.20;44.38;;;0.00;99.90;;;;;;5035575;28;20069;-69
2022/01/11 06:02:03;;;;;;;152.00;45.28;;;0.30;99.90;;;;;;5035311;28;20041;-70
2022/01/11 06:04:28;;;;;;;162.15;47.40;;;-0.10;99.90;;;;;;5034934;28;20045;-72
2022/01/11 06:06:54;;;;;;;168.88;47.58;;;-0.10;99.90;;;;;;5027418;28;20049;-69
2022/01/11 06:09:19;;;;;;;140.30;44.88;;;-0.10;99.90;;;;;;5017982;28;20064;-70
2022/01/11 06:11:45;;;;;;;131.40;43.88;;;0.30;99.90;;;;;;5035374;28;20056;-70
2022/01/11 06:14:11;;;;;;;146.32;44.25;;;-0.10;99.90;;;;;;5017668;28;20405;-70
2022/01/11 06:16:36;;;;;;;149.80;45.53;;;-0.20;99.90;;;;;;5017574;28;20041;-71
2022/01/11 06:19:03;;;;;;;148.13;45.20;;;-0.20;99.90;;;;;;5034425;28;20199;-70
2022/01/11 06:21:29;;;;;;;132.68;44.63;;;-0.10;99.90;;;;;;5034744;28;20496;-70
2022/01/11 06:23:54;;;;;;;152.25;45.67;;;-0.20;99.90;;;;;;5035073;28;20049;-70
2022/01/11 06:26:20;;;;;;;159.55;45.33;;;-0.20;99.90;;;;;;5035223;28;20049;-71
2022/01/11 06:28:46;;;;;;;147.75;44.28;;;-0.20;99.90;;;;;;5035259;28;20077;-70
2022/01/11 06:31:12;;;;;;;160.93;44.45;;;-0.20;99.90;;;;;;5017256;28;20461;-73
2022/01/11 06:33:38;;;;;;;148.52;43.40;;;-0.20;99.90;;;;;;5034843;28;20040;-71
2022/01/11 06:36:09;;;;;;;141.93;45.83;;;-0.20;99.90;;;;;;5034261;28;20041;-69
2022/01/11 06:38:39;;;;;;;149.43;45.47;;;-0.20;99.90;;;;;;5052660;28;20041;-69
2022/01/11 06:41:04;;;;;;;148.45;45.38;;;-0.20;99.90;;;;;;5037507;28;20045;-71
2022/01/11 06:43:30;;;;;;;152.05;46.95;;;-0.20;99.90;;;;;;5054444;28;20099;-71
2022/01/11 06:45:56;;;;;;;158.85;47.08;;;-0.20;99.90;;;;;;5041632;28;20045;-69
2022/01/11 06:48:21;;;;;;;155.20;49.65;;;-0.30;99.90;;;;;;5044450;28;20406;-69
2022/01/11 06:50:47;;;;;;;159.15;47.38;;;-0.30;99.90;;;;;;5031500;28;20088;-70
2022/01/11 06:53:13;;;;;;;155.25;46.75;;;-0.30;99.90;;;;;;5038770;28;20081;-70
2022/01/11 06:55:39;;;;;;;159.55;46.92;;;-0.20;99.90;;;;;;5044624;28;20096;-71
2022/01/11 06:58:05;;;;;;;152.32;48.60;;;-0.20;99.90;;;;;;5049582;28;20037;-71
2022/01/11 07:00:31;;;;;;;151.57;46.95;;;-0.20;99.90;;;;;;5036651;28;20468;-69
2022/01/11 07:02:56;;;;;;;142.40;45.90;;;-0.20;99.90;;;;;;5052694;28;20052;-70
2022/01/11 07:05:22;;;;;;;155.38;48.03;;;-0.20;99.90;;;;;;5047033;28;20110;-71
2022/01/11 07:07:47;;;;;;;161.48;47.53;;;-0.20;99.90;;;;;;5031188;28;20049;-71
2022/01/11 07:10:13;;;;;;;167.13;45.95;;;-0.20;99.90;;;;;;5036566;28;20134;-71
2022/01/11 07:12:39;;;;;;;167.77;47.63;;;0.00;99.90;;;;;;5055056;28;20045;-72
2022/01/11 07:15:05;;;;;;;145.52;45.90;;;-0.20;99.90;;;;;;5031120;28;20172;-71
2022/01/11 07:17:31;;;;;;;142.43;46.65;;;-0.20;99.90;;;;;;5046870;28;20045;-70
2022/01/11 07:19:56;;;;;;;149.25;45.88;;;-0.10;99.90;;;;;;5053229;28;20457;-71
2022/01/11 07:22:22;;;;;;;137.35;47.13;;;-0.10;99.90;;;;;;5054275;28;20063;-73
2022/01/11 07:24:48;;;;;;;146.68;46.58;;;-0.10;99.90;;;;;;5045616;28;20045;-71
2022/01/11 07:27:14;;;;;;;152.75;47.00;;;-0.10;99.90;;;;;;5045064;28;20051;-71
2022/01/11 07:29:40;;;;;;;144.18;47.40;;;-0.10;99.90;;;;;;5050915;28;20107;-72
2022/01/11 07:32:06;;;;;;;148.25;46.28;;;-0.10;99.90;;;;;;5037789;28;20081;-71
2022/01/11 07:34:32;;;;;;;155.07;48.13;;;-0.10;99.90;;;;;;5036865;28;20048;-71
2022/01/11 07:36:58;;;;;;;143.77;49.63;;;0.00;99.90;;;;;;5052892;28;20045;-73
2022/01/11 07:39:24;;;;;;;168.60;47.72;;;0.00;99.90;;;;;;5036664;28;20370;-73
2022/01/11 07:41:50;;;;;;;147.98;47.03;;;0.00;99.90;;;;;;5040532;28;20113;-75
2022/01/11 07:44:16;;;;;;;154.15;46.85;;;0.00;99.90;;;;;;5057621;28;20403;-71
2022/01/11 07:46:42;;;;;;;175.57;50.47;;;0.00;99.90;;;;;;5037506;28;20117;-75
2022/01/11 07:49:08;;;;;;;156.23;47.70;;;0.00;99.90;;;;;;5057485;28;20055;-73
2022/01/11 07:51:34;;;;;;;150.00;45.35;;;0.10;99.90;;;;;;5024337;28;20343;-74
2022/01/11 07:54:00;;;;;;;151.60;47.58;;;0.10;99.90;;;;;;5027024;28;20119;-73
2022/01/11 07:56:26;;;;;;;149.70;46.47;;;0.10;99.90;;;;;;5051480;28;20033;-74
2022/01/11 07:58:51;;;;;;;137.80;47.10;;;0.20;99.90;;;;;;5027744;28;20049;-74
2022/01/11 08:01:17;;;;;;;167.23;49.17;;;0.20;99.90;;;;;;5034053;28;20461;-74
2022/01/11 08:03:43;;;;;;;130.65;44.80;;;0.20;99.90;;;;;;5056496;28;20071;-73
2022/01/11 08:06:09;;;;;;;120.40;43.00;;;0.30;99.90;;;;;;5057114;28;20115;-74
2022/01/11 08:08:34;;;;;;;124.10;40.50;;;0.40;99.90;;;;;;5054752;28;20369;-74
2022/01/11 08:11:00;;;;;;;136.23;45.22;;;0.30;99.90;;;;;;5056859;28;20128;-75
2022/01/11 08:13:26;;;;;;;117.05;42.17;;;0.30;99.90;;;;;;5031909;28;20232;-72
2022/01/11 08:15:52;;;;;;;136.05;41.75;;;0.30;99.90;;;;;;5046154;28;20045;-75
2022/01/11 08:18:18;;;;;;;127.60;42.28;;;0.40;99.90;;;;;;5056415;28;20106;-74
2022/01/11 08:20:44;;;;;;;136.00;43.25;;;0.30;99.90;;;;;;5052079;28;20126;-73
2022/01/11 08:23:11;;;;;;;146.30;45.83;;;0.40;99.90;;;;;;5038755;28;20041;-74
2022/01/11 08:25:37;;;;;;;122.57;42.75;;;0.40;99.90;;;;;;5052229;28;20472;-74
2022/01/11 08:28:03;;;;;;;134.70;44.40;;;0.40;99.90;;;;;;5028378;28;20042;-73
2022/01/11 08:30:29;;;;;;;115.10;41.95;;;0.40;99.90;;;;;;5046768;28;20037;-72
2022/01/11 08:32:55;;;;;;;117.57;42.45;;;0.50;99.90;;;;;;5052261;28;20098;-76
2022/01/11 08:35:21;;;;;;;137.80;45.47;;;0.50;99.90;;;;;;5025997;28;20049;-74
2022/01/11 08:37:47;;;;;;;117.22;42.30;;;0.50;99.90;;;;;;5033557;28;20084;-74
2022/01/11 08:40:13;;;;;;;113.78;41.22;;;0.50;99.90;;;;;;5049846;28;20476;-73
2022/01/11 08:42:39;;;;;;;106.07;38.60;;;0.50;99.90;;;;;;5055618;28;20095;-75
2022/01/11 08:45:05;;;;;;;93.88;37.33;;;0.50;99.90;;;;;;5026244;28;20412;-76
2022/01/11 08:47:32;;;;;;;105.32;39.75;;;0.50;99.90;;;;;;5050921;28;20040;-72
2022/01/11 08:49:59;;;;;;;121.50;41.35;;;0.50;99.90;;;;;;5051978;28;20106;-74
2022/01/11 08:52:28;;;;;;;107.50;42.17;;;0.50;99.90;;;;;;5056883;28;20045;-73
2022/01/11 08:54:54;;;;;;;110.43;38.03;;;0.50;99.90;;;;;;5025059;28;20052;-73
2022/01/11 08:57:20;;;;;;;104.95;37.97;;;0.50;99.90;;;;;;5043623;28;20127;-73
2022/01/11 08:59:47;;;;;;;98.03;37.63;;;1.10;99.90;;;;;;5054974;28;20111;-73
2022/01/11 09:02:13;;;;;;;96.53;35.92;;;0.60;99.90;;;;;;5049146;28;20041;-73
2022/01/11 09:04:40;;;;;;;94.50;36.55;;;0.60;99.90;;;;;;5049717;28;20370;-75
2022/01/11 09:07:06;;;;;;;85.72;34.65;;;0.60;99.90;;;;;;5019259;28;20525;-73
2022/01/11 09:09:33;;;;;;;80.80;34.95;;;0.70;99.90;;;;;;5040668;28;20053;-72
2022/01/11 09:12:05;;;;;;;97.95;34.15;;;0.70;99.90;;;;;;5035784;28;20371;-73
2022/01/11 09:14:32;;;;;;;75.18;33.20;;;0.70;99.90;;;;;;5035855;28;20385;-73
2022/01/11 09:16:57;;;;;;;77.00;33.47;;;0.70;99.90;;;;;;5036258;28;20124;-73
2022/01/11 09:19:23;;;;;;;81.72;32.35;;;0.80;99.90;;;;;;5025087;28;20129;-74
2022/01/11 09:21:49;;;;;;;73.80;30.65;;;0.70;99.90;;;;;;5050224;28;20373;-71
2022/01/11 09:24:19;;;;;;;65.68;31.60;;;0.70;99.90;;;;;;5054867;28;20045;-73
2022/01/11 09:26:48;;;;;;;64.40;29.55;;;0.70;99.90;;;;;;5055802;28;20059;-72
2022/01/11 09:29:16;;;;;;;76.90;31.27;;;0.80;99.90;;;;;;5039014;28;20044;-73
2022/01/11 09:31:42;;;;;;;69.55;29.08;;;0.70;99.90;;;;;;5038367;28;20044;-73
2022/01/11 09:34:07;;;;;;;60.85;27.02;;;0.70;99.90;;;;;;5055966;28;20045;-73
2022/01/11 09:36:33;;;;;;;60.80;28.35;;;0.70;99.90;;;;;;5055766;28;20124;-73
2022/01/11 09:38:59;;;;;;;59.00;25.15;;;0.70;99.90;;;;;;5055920;28;20056;-74
2022/01/11 09:41:25;;;;;;;56.80;26.92;;;0.80;99.90;;;;;;5038634;28;20365;-72
2022/01/11 09:43:51;;;;;;;61.72;27.88;;;0.70;99.90;;;;;;5055560;28;20125;-71
2022/01/11 09:46:16;;;;;;;55.50;26.15;;;0.70;99.90;;;;;;5055429;28;20072;-72
2022/01/11 09:48:44;;;;;;;52.10;26.52;;;0.90;99.90;;;;;;5033146;28;20488;-73
2022/01/11 09:51:09;;;;;;;56.92;26.20;;;0.70;99.90;;;;;;5034171;28;20061;-74
2022/01/11 09:53:35;;;;;;;48.42;24.75;;;0.70;99.90;;;;;;5017848;28;20033;-72
2022/01/11 09:56:05;;;;;;;60.40;26.67;;;0.70;99.90;;;;;;5035151;28;20453;-72
2022/01/11 09:58:32;;;;;;;52.35;25.52;;;0.70;99.90;;;;;;5017818;28;20123;-73
2022/01/11 10:00:58;;;;;;;47.65;24.02;;;0.70;99.90;;;;;;5018134;28;20115;-71
2022/01/11 10:03:24;;;;;;;51.22;26.33;;;0.70;99.90;;;;;;5017972;28;20393;-73
2022/01/11 10:05:50;;;;;;;56.13;26.20;;;0.70;99.90;;;;;;5018082;28;20045;-73
2022/01/11 10:08:19;;;;;;;55.88;27.65;;;0.70;99.90;;;;;;5033921;28;20037;-73
2022/01/11 10:10:46;;;;;;;54.83;25.35;;;0.70;99.90;;;;;;5017517;28;20068;-72
2022/01/11 10:13:30;;;;;;;53.60;26.30;;;0.80;99.90;;;;;;5018041;28;20215;-73
2022/01/11 10:15:56;;;;;;;51.50;25.63;;;0.70;99.90;;;;;;5017967;28;20107;-72
2022/01/11 10:18:35;;;;;;;59.15;26.13;;;0.80;99.90;;;;;;5032216;28;20061;-72
2022/01/11 10:21:21;;;;;;;51.55;25.88;;;0.80;99.90;;;;;;5043030;28;20153;-73
2022/01/11 10:23:47;;;;;;;42.30;22.45;;;0.80;99.90;;;;;;5034591;28;20103;-73
2022/01/11 10:26:13;;;;;;;48.88;25.40;;;0.80;99.90;;;;;;5034943;28;20049;-74
2022/01/11 10:28:38;;;;;;;47.70;23.80;;;0.90;99.90;;;;;;5017375;28;20058;-73
2022/01/11 10:31:05;;;;;;;47.53;25.70;;;0.90;99.90;;;;;;5017535;28;20045;-72
2022/01/11 10:33:31;;;;;;;50.55;26.10;;;0.90;99.90;;;;;;5035187;28;20057;-73
2022/01/11 10:35:56;;;;;;;52.55;26.45;;;0.90;99.90;;;;;;5034793;28;20048;-72
2022/01/11 10:38:30;;;;;;;51.88;27.63;;;1.00;99.90;;;;;;5017254;28;20118;-74
2022/01/11 10:40:55;;;;;;;62.60;28.90;;;1.00;99.90;;;;;;5017807;28;20117;-73
2022/01/11 10:43:22;;;;;;;49.20;27.00;;;1.00;99.90;;;;;;5017082;28;20050;-74
2022/01/11 10:45:51;;;;;;;54.33;27.25;;;1.00;99.90;;;;;;5017335;28;20049;-74
2022/01/11 10:48:20;;;;;;;47.50;25.45;;;1.00;99.90;;;;;;5033211;28;20494;-74
2022/01/11 10:50:49;;;;;;;61.85;27.67;;;1.00;99.90;;;;;;5037103;28;20129;-71
2022/01/11 10:53:23;;;;;;;74.50;33.70;;;1.00;99.90;;;;;;5054581;28;20049;-72
2022/01/11 10:56:00;;;;;;;68.22;31.25;;;1.00;99.90;;;;;;5037012;28;20159;-72
2022/01/11 10:58:33;;;;;;;49.53;25.40;;;1.00;99.90;;;;;;5037234;28;20053;-72
2022/01/11 11:00:59;;;;;;;51.87;25.43;;;1.00;99.90;;;;;;5037517;28;20424;-72
2022/01/11 11:03:27;;;;;;;53.35;25.52;;;1.00;99.90;;;;;;5056809;28;20049;-72
2022/01/11 11:06:07;;;;;;;51.65;26.23;;;1.00;99.90;;;;;;5058387;28;20131;-70
2022/01/11 11:08:45;;;;;;;46.00;23.60;;;1.00;99.90;;;;;;5041349;28;20106;-73
2022/01/11 11:11:20;;;;;;;51.05;24.88;;;1.00;99.90;;;;;;5040424;28;20136;-73
2022/01/11 11:13:48;;;;;;;44.95;23.70;;;1.00;99.90;;;;;;5058536;28;20055;-71
2022/01/11 11:16:16;;;;;;;48.50;23.80;;;1.00;99.90;;;;;;5058743;28;20338;-72
2022/01/11 11:18:56;;;;;;;44.80;23.83;;;1.10;99.90;;;;;;5041074;28;20445;-73
2022/01/11 11:21:37;;;;;;;43.55;24.05;;;1.10;99.90;;;;;;5042810;28;20037;-73
2022/01/11 11:24:06;;;;;;;47.85;24.83;;;1.20;99.90;;;;;;5038370;28;20085;-73
2022/01/11 11:26:38;;;;;;;41.35;22.60;;;1.20;99.90;;;;;;5038447;28;20063;-72
2022/01/11 11:29:05;;;;;;;41.17;23.02;;;1.30;99.90;;;;;;5038393;28;20117;-74
2022/01/11 11:31:34;;;;;;;44.85;23.98;;;1.40;99.90;;;;;;5020743;28;20091;-74
2022/01/11 11:34:01;;;;;;;39.58;23.10;;;1.50;99.90;;;;;;5037771;28;20519;-71
2022/01/11 11:36:28;;;;;;;42.33;23.38;;;1.50;99.90;;;;;;5021473;28;20365;-73
2022/01/11 11:39:03;;;;;;;36.80;22.73;;;1.60;99.90;;;;;;5020403;28;20053;-72
2022/01/11 11:41:30;;;;;;;41.10;22.38;;;1.60;99.90;;;;;;5020852;28;20046;-73
2022/01/11 11:44:15;;;;;;;41.30;23.73;;;1.70;99.90;;;;;;5038115;28;20037;-72
2022/01/11 11:46:47;;;;;;;43.92;23.23;;;1.80;99.90;;;;;;5042660;28;20048;-72
2022/01/11 11:49:15;;;;;;;40.88;21.92;;;1.90;99.90;;;;;;5057647;28;20080;-73
2022/01/11 11:51:42;;;;;;;45.00;21.73;;;2.00;99.90;;;;;;5057626;28;20389;-73
2022/01/11 11:54:16;;;;;;;38.25;21.95;;;2.20;99.90;;;;;;5057759;28;20140;-71
2022/01/11 11:56:58;;;;;;;41.75;21.42;;;2.20;99.90;;;;;;5040359;28;20397;-75
2022/01/11 11:59:25;;;;;;;36.00;22.58;;;2.20;99.90;;;;;;5039911;28;20053;-72
2022/01/11 12:01:51;;;;;;;37.03;20.50;;;2.30;99.90;;;;;;5040081;28;20095;-72
2022/01/11 12:04:19;;;;;;;36.20;20.40;;;2.40;99.90;;;;;;5040089;28;20044;-73
2022/01/11 12:06:46;;;;;;;32.05;19.42;;;2.40;99.90;;;;;;5057527;28;20086;-73
2022/01/11 12:09:17;;;;;;;35.15;19.90;;;2.50;99.90;;;;;;5057178;28;20486;-72
2022/01/11 12:11:47;;;;;;;43.00;20.55;;;2.60;99.90;;;;;;5039729;28;20053;-73
2022/01/11 12:14:30;;;;;;;38.65;20.50;;;2.80;99.90;;;;;;5056836;28;20040;-72
2022/01/11 12:16:58;;;;;;;38.47;19.65;;;2.70;99.90;;;;;;5050134;28;20137;-72
2022/01/11 12:19:40;;;;;;;34.03;20.02;;;2.90;99.90;;;;;;5020271;28;20049;-74
2022/01/11 12:22:08;;;;;;;31.88;18.98;;;2.90;99.90;;;;;;5037471;28;20123;-72
2022/01/11 12:24:44;;;;;;;34.45;18.50;;;3.00;99.90;;;;;;5020069;28;20050;-72
2022/01/11 12:27:11;;;;;;;35.55;18.70;;;3.00;99.90;;;;;;5037207;28;20061;-73
2022/01/11 12:29:50;;;;;;;30.27;18.98;;;3.10;99.90;;;;;;5037416;28;20497;-73